עמוד ראשי
METAR-TAF:

METAR-TAF

שדות תעופה :

Leuchars, סקוטלנד

קו רוחב: 56-23N, קו אורך: 002-52W, גובה: 12מטר

תצפית מזג אוויר נוכחית

הדו"ח נערך לפני 31דקות, בשעה 13:20 UTC
רוח 8קשר מכיוון מזרח
טמפרטורת 13 צלסיוס
לחות 88%
לחץ 1019 hPa
ראות 10 קילומטר או יותר
מעט עננים בגובה 500רגל
עננים פזורים בגובה 1700רגל
עננים בינוניים בגובה 3500רגל

METAR: EGQL 191320Z 10008KT 9999 FEW005 SCT017 BKN035 13/11 Q1019 RMK WHT

זמן: 14:51 (13:51 UTC)

תחזית

הדו"ח נערך לפני 55דקות, בשעה 12:56 UTC
תחזית בתוקף מ 19 ב 12 UTC עד 19 ב 21 UTC
רוח 8קשר מכיוון מזרח
ראות 10 קילומטר או יותר
מעט עננים בגובה 800רגל
עננים בינוניים בגובה 3000רגל
זמנית מ -
19 ב 12 UTC עד 19 ב 21 UTC
עננים פזורים בגובה 800רגל
הסתברות 30% :
זמנית מ -
19 ב 12 UTC עד 19 ב 15 UTC
ראות: 5000מטר
עננים פזורים בגובה 400רגל
עננים בינוניים בגובה 600רגל
אד,

TAF: EGQL 191256Z 1912/1921 10008KT 9999 FEW008 BKN030 TEMPO 1912/1921 SCT008 PROB30 TEMPO 1912/1915 5000 BR SCT004 BKN006

תצפיות ותחזיות מזג אוויר לגבי יותר מ- 4,000 שדות תעופה ברחבי העולם. דוחות METAR ו- TAF.

התחנות הזמינות מסומנות בנקודות צהובות ואדומות על גבי המפה.

העבר את העכבר לנקודה הצבעונית על מנת לראות את שם התחנה.

לאחר מכן, לחץ כדי לראות את תוכן ואת תחזיות מזג האוויר.

כדי לשנות את המפה: לחץ על הכפתורים הירוקים עם הפלוס השחור כדי להתקרב; על הכפתור הירוק עם המקף כדי להתרחק; או בחיצים הירוקים למפות סמוכות.


METAR-TAF: